METAR Data
IDs: Format: Raw Decoded Include TAF

Data at: 1601 UTC 18 Feb 2019

METAR for:KAXA (Algona Muni, IA, US)
Text:KAXA 181555Z AUTO 34006G11KT 10SM CLR M15/M17 A3040 RMK AO2 PWINO
Temperature:-15.0°C ( 5°F)
Dewpoint:-17.0°C ( 1°F) [RH = 85%]
Pressure (altimeter):30.40 inches Hg (1029.5 mb)
Winds:from the NNW (340 degrees) at 7 MPH (6 knots; 3.1 m/s) gusting to 13 MPH (11 knots; 5.7 m/s)
Visibility:10 or more sm (16+ km)
Ceiling:at least 12,000 feet AGL
Clouds:sky clear below 12,000 feet AGL
QC Flag:automated observation with no human augmentation